sensor_id;sensor_type;location;lat;lon;timestamp;P1;durP1;ratioP1;P2;durP2;ratioP2
53391;SDS011;41667;51.922;8.850;2022-09-16T00:00:50;2.92;;;1.20;;
53391;SDS011;41667;51.922;8.850;2022-09-16T00:03:16;3.08;;;1.17;;
53391;SDS011;41667;51.922;8.850;2022-09-16T00:05:42;2.65;;;1.27;;
53391;SDS011;41667;51.922;8.850;2022-09-16T00:08:07;2.95;;;1.33;;
53391;SDS011;41667;51.922;8.850;2022-09-16T00:10:32;3.50;;;1.00;;
53391;SDS011;41667;51.922;8.850;2022-09-16T00:12:59;2.35;;;1.38;;
53391;SDS011;41667;51.922;8.850;2022-09-16T00:15:24;1.30;;;1.10;;
53391;SDS011;41667;51.922;8.850;2022-09-16T00:17:49;5.60;;;1.67;;
53391;SDS011;41667;51.922;8.850;2022-09-16T00:20:14;2.83;;;1.07;;
53391;SDS011;41667;51.922;8.850;2022-09-16T00:22:40;3.00;;;1.27;;
53391;SDS011;41667;51.922;8.850;2022-09-16T00:25:05;1.33;;;1.20;;
53391;SDS011;41667;51.922;8.850;2022-09-16T00:27:30;4.88;;;1.33;;
53391;SDS011;41667;51.922;8.850;2022-09-16T00:29:55;1.33;;;1.23;;
53391;SDS011;41667;51.922;8.850;2022-09-16T00:32:20;1.85;;;1.02;;
53391;SDS011;41667;51.922;8.850;2022-09-16T00:34:47;8.02;;;1.95;;
53391;SDS011;41667;51.922;8.850;2022-09-16T00:37:13;3.07;;;0.90;;
53391;SDS011;41667;51.922;8.850;2022-09-16T00:39:38;3.60;;;1.30;;
53391;SDS011;41667;51.922;8.850;2022-09-16T00:42:03;2.30;;;1.05;;
53391;SDS011;41667;51.922;8.850;2022-09-16T00:47:13;3.92;;;1.20;;
53391;SDS011;41667;51.922;8.850;2022-09-16T00:49:40;2.50;;;1.67;;
53391;SDS011;41667;51.922;8.850;2022-09-16T00:52:05;2.03;;;1.20;;
53391;SDS011;41667;51.922;8.850;2022-09-16T00:54:31;1.60;;;1.25;;
53391;SDS011;41667;51.922;8.850;2022-09-16T00:56:58;4.35;;;0.98;;
53391;SDS011;41667;51.922;8.850;2022-09-16T00:59:30;1.42;;;1.17;;
53391;SDS011;41667;51.922;8.850;2022-09-16T01:01:57;10.90;;;1.45;;
53391;SDS011;41667;51.922;8.850;2022-09-16T01:04:24;1.65;;;0.80;;
53391;SDS011;41667;51.922;8.850;2022-09-16T01:06:50;3.05;;;1.00;;
53391;SDS011;41667;51.922;8.850;2022-09-16T01:09:17;1.63;;;1.13;;
53391;SDS011;41667;51.922;8.850;2022-09-16T01:11:43;2.20;;;1.38;;
53391;SDS011;41667;51.922;8.850;2022-09-16T01:14:08;2.35;;;1.10;;
53391;SDS011;41667;51.922;8.850;2022-09-16T01:17:00;4.50;;;1.08;;
53391;SDS011;41667;51.922;8.850;2022-09-16T01:22:19;3.13;;;0.98;;
53391;SDS011;41667;51.922;8.850;2022-09-16T01:32:51;1.13;;;0.77;;
53391;SDS011;41667;51.922;8.850;2022-09-16T01:43:03;0.95;;;0.75;;
53391;SDS011;41667;51.922;8.850;2022-09-16T01:50:36;1.10;;;0.80;;
53391;SDS011;41667;51.922;8.850;2022-09-16T01:58:02;1.33;;;0.90;;
53391;SDS011;41667;51.922;8.850;2022-09-16T02:00:30;0.75;;;0.75;;
53391;SDS011;41667;51.922;8.850;2022-09-16T02:03:04;1.05;;;0.75;;
53391;SDS011;41667;51.922;8.850;2022-09-16T02:05:32;3.03;;;1.17;;
53391;SDS011;41667;51.922;8.850;2022-09-16T02:08:00;2.08;;;0.98;;
53391;SDS011;41667;51.922;8.850;2022-09-16T02:10:27;6.95;;;1.20;;
53391;SDS011;41667;51.922;8.850;2022-09-16T02:12:53;2.70;;;0.93;;
53391;SDS011;41667;51.922;8.850;2022-09-16T02:15:21;0.80;;;0.80;;
53391;SDS011;41667;51.922;8.850;2022-09-16T02:17:50;1.23;;;0.80;;
53391;SDS011;41667;51.922;8.850;2022-09-16T02:20:17;1.88;;;0.88;;
53391;SDS011;41667;51.922;8.850;2022-09-16T02:22:45;0.85;;;0.80;;
53391;SDS011;41667;51.922;8.850;2022-09-16T02:25:11;1.35;;;0.82;;
53391;SDS011;41667;51.922;8.850;2022-09-16T02:27:38;2.40;;;1.00;;
53391;SDS011;41667;51.922;8.850;2022-09-16T02:30:05;5.72;;;1.83;;
53391;SDS011;41667;51.922;8.850;2022-09-16T02:32:31;2.47;;;1.13;;
53391;SDS011;41667;51.922;8.850;2022-09-16T02:34:57;2.95;;;1.20;;
53391;SDS011;41667;51.922;8.850;2022-09-16T02:37:25;2.00;;;1.00;;
53391;SDS011;41667;51.922;8.850;2022-09-16T02:39:53;3.47;;;1.33;;
53391;SDS011;41667;51.922;8.850;2022-09-16T02:42:20;1.08;;;0.93;;
53391;SDS011;41667;51.922;8.850;2022-09-16T02:44:45;4.10;;;1.30;;
53391;SDS011;41667;51.922;8.850;2022-09-16T02:47:12;0.80;;;0.80;;
53391;SDS011;41667;51.922;8.850;2022-09-16T02:55:38;1.98;;;1.35;;
53391;SDS011;41667;51.922;8.850;2022-09-16T02:57:55;3.85;;;1.52;;
53391;SDS011;41667;51.922;8.850;2022-09-16T03:00:20;4.03;;;1.15;;
53391;SDS011;41667;51.922;8.850;2022-09-16T03:02:46;1.70;;;0.93;;
53391;SDS011;41667;51.922;8.850;2022-09-16T03:05:11;3.22;;;1.05;;
53391;SDS011;41667;51.922;8.850;2022-09-16T03:07:37;7.82;;;1.50;;
53391;SDS011;41667;51.922;8.850;2022-09-16T03:10:03;5.88;;;1.80;;
53391;SDS011;41667;51.922;8.850;2022-09-16T03:12:36;6.53;;;2.17;;
53391;SDS011;41667;51.922;8.850;2022-09-16T03:15:10;1.42;;;1.27;;
53391;SDS011;41667;51.922;8.850;2022-09-16T03:22:47;6.68;;;2.17;;
53391;SDS011;41667;51.922;8.850;2022-09-16T03:27:50;3.30;;;1.40;;
53391;SDS011;41667;51.922;8.850;2022-09-16T03:30:16;6.18;;;2.20;;
53391;SDS011;41667;51.922;8.850;2022-09-16T03:32:43;3.15;;;1.75;;
53391;SDS011;41667;51.922;8.850;2022-09-16T03:35:16;4.05;;;1.88;;
53391;SDS011;41667;51.922;8.850;2022-09-16T03:37:42;3.63;;;1.55;;
53391;SDS011;41667;51.922;8.850;2022-09-16T03:40:12;7.85;;;2.03;;
53391;SDS011;41667;51.922;8.850;2022-09-16T03:42:41;3.20;;;2.00;;
53391;SDS011;41667;51.922;8.850;2022-09-16T03:45:08;2.28;;;1.58;;
53391;SDS011;41667;51.922;8.850;2022-09-16T03:47:33;5.40;;;2.95;;
53391;SDS011;41667;51.922;8.850;2022-09-16T03:49:59;2.05;;;1.80;;
53391;SDS011;41667;51.922;8.850;2022-09-16T03:52:24;4.65;;;1.70;;
53391;SDS011;41667;51.922;8.850;2022-09-16T03:54:49;4.30;;;1.90;;
53391;SDS011;41667;51.922;8.850;2022-09-16T03:57:14;7.38;;;1.92;;
53391;SDS011;41667;51.922;8.850;2022-09-16T03:59:39;2.72;;;2.35;;
53391;SDS011;41667;51.922;8.850;2022-09-16T04:02:05;5.50;;;1.80;;
53391;SDS011;41667;51.922;8.850;2022-09-16T04:04:31;2.28;;;1.95;;
53391;SDS011;41667;51.922;8.850;2022-09-16T04:06:56;2.15;;;1.95;;
53391;SDS011;41667;51.922;8.850;2022-09-16T04:09:21;4.65;;;1.88;;
53391;SDS011;41667;51.922;8.850;2022-09-16T04:11:46;4.13;;;1.40;;
53391;SDS011;41667;51.922;8.850;2022-09-16T04:14:11;5.18;;;1.48;;
53391;SDS011;41667;51.922;8.850;2022-09-16T04:16:37;4.50;;;1.40;;
53391;SDS011;41667;51.922;8.850;2022-09-16T04:19:02;5.27;;;1.60;;
53391;SDS011;41667;51.922;8.850;2022-09-16T04:21:27;1.83;;;1.20;;
53391;SDS011;41667;51.922;8.850;2022-09-16T04:23:53;1.70;;;1.60;;
53391;SDS011;41667;51.922;8.850;2022-09-16T04:26:18;3.45;;;1.67;;
53391;SDS011;41667;51.922;8.850;2022-09-16T04:28:43;1.15;;;1.02;;
53391;SDS011;41667;51.922;8.850;2022-09-16T04:31:09;5.10;;;1.13;;
53391;SDS011;41667;51.922;8.850;2022-09-16T04:33:35;3.00;;;1.17;;
53391;SDS011;41667;51.922;8.850;2022-09-16T04:36:01;6.82;;;1.67;;
53391;SDS011;41667;51.922;8.850;2022-09-16T04:38:26;4.07;;;1.30;;
53391;SDS011;41667;51.922;8.850;2022-09-16T04:40:51;2.85;;;1.30;;
53391;SDS011;41667;51.922;8.850;2022-09-16T04:43:18;5.53;;;1.55;;
53391;SDS011;41667;51.922;8.850;2022-09-16T04:45:43;3.30;;;1.67;;
53391;SDS011;41667;51.922;8.850;2022-09-16T04:48:08;3.25;;;1.10;;
53391;SDS011;41667;51.922;8.850;2022-09-16T04:50:33;3.00;;;1.58;;
53391;SDS011;41667;51.922;8.850;2022-09-16T04:52:59;2.78;;;1.55;;
53391;SDS011;41667;51.922;8.850;2022-09-16T04:55:24;3.28;;;1.90;;
53391;SDS011;41667;51.922;8.850;2022-09-16T04:57:49;4.60;;;1.77;;
53391;SDS011;41667;51.922;8.850;2022-09-16T05:00:14;2.60;;;1.40;;
53391;SDS011;41667;51.922;8.850;2022-09-16T05:02:42;4.90;;;1.90;;
53391;SDS011;41667;51.922;8.850;2022-09-16T05:05:07;2.35;;;1.83;;
53391;SDS011;41667;51.922;8.850;2022-09-16T05:07:32;3.80;;;1.30;;
53391;SDS011;41667;51.922;8.850;2022-09-16T05:09:58;4.07;;;1.93;;
53391;SDS011;41667;51.922;8.850;2022-09-16T05:12:23;5.23;;;1.73;;
53391;SDS011;41667;51.922;8.850;2022-09-16T05:14:48;3.77;;;2.40;;
53391;SDS011;41667;51.922;8.850;2022-09-16T05:17:13;5.80;;;2.13;;
53391;SDS011;41667;51.922;8.850;2022-09-16T05:19:38;3.45;;;1.60;;
53391;SDS011;41667;51.922;8.850;2022-09-16T05:22:03;5.72;;;2.10;;
53391;SDS011;41667;51.922;8.850;2022-09-16T05:24:32;3.35;;;1.83;;
53391;SDS011;41667;51.922;8.850;2022-09-16T05:26:57;3.80;;;1.90;;
53391;SDS011;41667;51.922;8.850;2022-09-16T05:29:22;5.13;;;2.53;;
53391;SDS011;41667;51.922;8.850;2022-09-16T05:31:48;4.90;;;2.10;;
53391;SDS011;41667;51.922;8.850;2022-09-16T05:36:38;4.23;;;1.63;;
53391;SDS011;41667;51.922;8.850;2022-09-16T05:39:04;7.00;;;2.22;;
53391;SDS011;41667;51.922;8.850;2022-09-16T05:41:30;7.65;;;2.22;;
53391;SDS011;41667;51.922;8.850;2022-09-16T05:43:57;6.72;;;2.25;;
53391;SDS011;41667;51.922;8.850;2022-09-16T05:46:23;5.28;;;2.08;;
53391;SDS011;41667;51.922;8.850;2022-09-16T05:48:48;4.32;;;2.38;;
53391;SDS011;41667;51.922;8.850;2022-09-16T05:51:15;5.70;;;2.00;;
53391;SDS011;41667;51.922;8.850;2022-09-16T05:53:41;4.18;;;2.30;;
53391;SDS011;41667;51.922;8.850;2022-09-16T05:56:07;3.47;;;2.20;;
53391;SDS011;41667;51.922;8.850;2022-09-16T05:58:33;5.50;;;2.35;;
53391;SDS011;41667;51.922;8.850;2022-09-16T06:00:59;1.90;;;1.40;;
53391;SDS011;41667;51.922;8.850;2022-09-16T06:03:25;3.47;;;2.33;;
53391;SDS011;41667;51.922;8.850;2022-09-16T06:05:51;5.80;;;2.42;;
53391;SDS011;41667;51.922;8.850;2022-09-16T06:08:16;3.00;;;1.97;;
53391;SDS011;41667;51.922;8.850;2022-09-16T06:10:41;3.53;;;1.90;;
53391;SDS011;41667;51.922;8.850;2022-09-16T06:13:06;3.50;;;2.67;;
53391;SDS011;41667;51.922;8.850;2022-09-16T06:15:32;1.90;;;1.70;;
53391;SDS011;41667;51.922;8.850;2022-09-16T06:17:57;3.42;;;2.00;;
53391;SDS011;41667;51.922;8.850;2022-09-16T06:20:22;9.90;;;2.58;;
53391;SDS011;41667;51.922;8.850;2022-09-16T06:22:48;5.00;;;2.53;;
53391;SDS011;41667;51.922;8.850;2022-09-16T06:25:13;3.55;;;2.25;;
53391;SDS011;41667;51.922;8.850;2022-09-16T06:27:38;6.40;;;2.27;;
53391;SDS011;41667;51.922;8.850;2022-09-16T06:30:03;3.00;;;1.60;;
53391;SDS011;41667;51.922;8.850;2022-09-16T06:32:29;4.75;;;1.35;;
53391;SDS011;41667;51.922;8.850;2022-09-16T06:34:54;2.47;;;1.77;;
53391;SDS011;41667;51.922;8.850;2022-09-16T06:37:20;3.67;;;2.00;;
53391;SDS011;41667;51.922;8.850;2022-09-16T06:39:45;2.90;;;1.80;;
53391;SDS011;41667;51.922;8.850;2022-09-16T06:42:10;4.23;;;1.73;;
53391;SDS011;41667;51.922;8.850;2022-09-16T06:44:35;4.25;;;1.80;;
53391;SDS011;41667;51.922;8.850;2022-09-16T06:47:00;4.18;;;1.60;;
53391;SDS011;41667;51.922;8.850;2022-09-16T06:49:25;3.83;;;2.40;;
53391;SDS011;41667;51.922;8.850;2022-09-16T06:51:51;3.63;;;1.40;;
53391;SDS011;41667;51.922;8.850;2022-09-16T06:54:16;2.97;;;1.58;;
53391;SDS011;41667;51.922;8.850;2022-09-16T06:56:41;3.47;;;1.83;;
53391;SDS011;41667;51.922;8.850;2022-09-16T06:59:07;2.85;;;1.80;;
53391;SDS011;41667;51.922;8.850;2022-09-16T07:01:32;4.38;;;2.78;;
53391;SDS011;41667;51.922;8.850;2022-09-16T07:04:00;4.15;;;2.10;;
53391;SDS011;41667;51.922;8.850;2022-09-16T07:06:28;1.45;;;1.35;;
53391;SDS011;41667;51.922;8.850;2022-09-16T07:08:54;5.00;;;2.03;;
53391;SDS011;41667;51.922;8.850;2022-09-16T07:11:19;2.65;;;1.80;;
53391;SDS011;41667;51.922;8.850;2022-09-16T07:13:45;5.43;;;2.10;;
53391;SDS011;41667;51.922;8.850;2022-09-16T07:16:12;3.03;;;1.90;;
53391;SDS011;41667;51.922;8.850;2022-09-16T07:18:38;2.80;;;1.70;;
53391;SDS011;41667;51.922;8.850;2022-09-16T07:21:04;6.30;;;1.70;;
53391;SDS011;41667;51.922;8.850;2022-09-16T07:23:30;2.15;;;1.63;;
53391;SDS011;41667;51.922;8.850;2022-09-16T07:26:06;2.13;;;1.30;;
53391;SDS011;41667;51.922;8.850;2022-09-16T07:28:31;2.90;;;1.38;;
53391;SDS011;41667;51.922;8.850;2022-09-16T07:31:00;4.35;;;1.15;;
53391;SDS011;41667;51.922;8.850;2022-09-16T07:33:26;2.63;;;1.40;;
53391;SDS011;41667;51.922;8.850;2022-09-16T07:35:51;4.03;;;1.58;;
53391;SDS011;41667;51.922;8.850;2022-09-16T07:38:16;2.28;;;1.30;;
53391;SDS011;41667;51.922;8.850;2022-09-16T07:40:41;2.05;;;1.60;;
53391;SDS011;41667;51.922;8.850;2022-09-16T07:43:07;4.07;;;1.20;;
53391;SDS011;41667;51.922;8.850;2022-09-16T07:45:32;2.13;;;1.73;;
53391;SDS011;41667;51.922;8.850;2022-09-16T07:47:57;2.70;;;1.45;;
53391;SDS011;41667;51.922;8.850;2022-09-16T07:50:22;2.97;;;1.27;;
53391;SDS011;41667;51.922;8.850;2022-09-16T07:52:47;3.42;;;1.60;;
53391;SDS011;41667;51.922;8.850;2022-09-16T07:55:12;2.30;;;1.20;;
53391;SDS011;41667;51.922;8.850;2022-09-16T07:57:39;2.70;;;1.75;;
53391;SDS011;41667;51.922;8.850;2022-09-16T08:00:05;1.43;;;1.33;;
53391;SDS011;41667;51.922;8.850;2022-09-16T08:02:30;2.83;;;1.40;;
53391;SDS011;41667;51.922;8.850;2022-09-16T08:04:55;2.47;;;1.08;;
53391;SDS011;41667;51.922;8.850;2022-09-16T08:07:20;3.20;;;1.17;;
53391;SDS011;41667;51.922;8.850;2022-09-16T08:09:45;1.27;;;0.98;;
53391;SDS011;41667;51.922;8.850;2022-09-16T08:12:10;2.50;;;1.00;;
53391;SDS011;41667;51.922;8.850;2022-09-16T08:14:36;2.55;;;1.40;;
53391;SDS011;41667;51.922;8.850;2022-09-16T08:17:02;2.87;;;1.20;;
53391;SDS011;41667;51.922;8.850;2022-09-16T08:19:27;4.63;;;1.10;;
53391;SDS011;41667;51.922;8.850;2022-09-16T08:21:52;1.00;;;0.88;;
53391;SDS011;41667;51.922;8.850;2022-09-16T08:24:18;4.53;;;1.05;;
53391;SDS011;41667;51.922;8.850;2022-09-16T08:26:43;1.45;;;1.00;;
53391;SDS011;41667;51.922;8.850;2022-09-16T08:29:08;2.60;;;1.03;;
53391;SDS011;41667;51.922;8.850;2022-09-16T08:31:33;3.47;;;0.85;;
53391;SDS011;41667;51.922;8.850;2022-09-16T08:33:58;1.27;;;0.75;;
53391;SDS011;41667;51.922;8.850;2022-09-16T08:36:24;2.27;;;1.00;;
53391;SDS011;41667;51.922;8.850;2022-09-16T08:38:50;3.67;;;1.13;;
53391;SDS011;41667;51.922;8.850;2022-09-16T08:43:50;4.03;;;1.00;;
53391;SDS011;41667;51.922;8.850;2022-09-16T08:48:57;2.92;;;0.98;;
53391;SDS011;41667;51.922;8.850;2022-09-16T08:51:24;0.95;;;0.88;;
53391;SDS011;41667;51.922;8.850;2022-09-16T08:56:19;2.92;;;0.95;;
53391;SDS011;41667;51.922;8.850;2022-09-16T08:58:45;0.90;;;0.60;;
53391;SDS011;41667;51.922;8.850;2022-09-16T09:01:17;1.48;;;0.63;;
53391;SDS011;41667;51.922;8.850;2022-09-16T09:03:45;4.68;;;1.15;;
53391;SDS011;41667;51.922;8.850;2022-09-16T09:06:17;4.97;;;0.90;;
53391;SDS011;41667;51.922;8.850;2022-09-16T09:09:02;3.08;;;0.50;;
53391;SDS011;41667;51.922;8.850;2022-09-16T09:16:45;2.63;;;0.90;;
53391;SDS011;41667;51.922;8.850;2022-09-16T09:22:24;2.30;;;0.65;;
53391;SDS011;41667;51.922;8.850;2022-09-16T09:26:57;1.02;;;0.50;;
53391;SDS011;41667;51.922;8.850;2022-09-16T09:29:33;2.88;;;0.60;;
53391;SDS011;41667;51.922;8.850;2022-09-16T09:37:03;4.93;;;1.58;;
53391;SDS011;41667;51.922;8.850;2022-09-16T09:42:16;1.95;;;0.88;;
53391;SDS011;41667;51.922;8.850;2022-09-16T09:44:47;4.05;;;1.00;;
53391;SDS011;41667;51.922;8.850;2022-09-16T09:47:14;4.50;;;0.77;;
53391;SDS011;41667;51.922;8.850;2022-09-16T09:49:45;1.77;;;0.60;;
53391;SDS011;41667;51.922;8.850;2022-09-16T09:54:37;3.63;;;0.80;;
53391;SDS011;41667;51.922;8.850;2022-09-16T09:57:08;7.03;;;0.73;;
53391;SDS011;41667;51.922;8.850;2022-09-16T10:02:00;3.30;;;0.47;;
53391;SDS011;41667;51.922;8.850;2022-09-16T10:04:27;3.75;;;1.23;;
53391;SDS011;41667;51.922;8.850;2022-09-16T10:06:54;4.72;;;0.90;;
53391;SDS011;41667;51.922;8.850;2022-09-16T10:09:20;4.65;;;0.50;;
53391;SDS011;41667;51.922;8.850;2022-09-16T10:11:47;3.88;;;1.02;;
53391;SDS011;41667;51.922;8.850;2022-09-16T10:14:46;0.60;;;0.60;;
53391;SDS011;41667;51.922;8.850;2022-09-16T10:17:10;1.98;;;0.60;;
53391;SDS011;41667;51.922;8.850;2022-09-16T10:19:39;2.78;;;0.55;;
53391;SDS011;41667;51.922;8.850;2022-09-16T10:22:31;3.20;;;0.52;;
53391;SDS011;41667;51.922;8.850;2022-09-16T10:25:02;2.33;;;0.88;;
53391;SDS011;41667;51.922;8.850;2022-09-16T10:27:35;5.05;;;1.00;;
53391;SDS011;41667;51.922;8.850;2022-09-16T10:30:17;5.47;;;0.88;;
53391;SDS011;41667;51.922;8.850;2022-09-16T10:32:50;6.68;;;0.65;;
53391;SDS011;41667;51.922;8.850;2022-09-16T10:35:22;1.42;;;0.60;;
53391;SDS011;41667;51.922;8.850;2022-09-16T10:37:55;1.45;;;0.80;;
53391;SDS011;41667;51.922;8.850;2022-09-16T10:40:21;3.50;;;1.25;;
53391;SDS011;41667;51.922;8.850;2022-09-16T10:42:48;4.93;;;0.80;;
53391;SDS011;41667;51.922;8.850;2022-09-16T10:45:35;2.42;;;0.70;;
53391;SDS011;41667;51.922;8.850;2022-09-16T10:48:00;2.28;;;0.60;;
53391;SDS011;41667;51.922;8.850;2022-09-16T10:50:28;4.13;;;0.63;;
53391;SDS011;41667;51.922;8.850;2022-09-16T10:52:53;1.60;;;0.80;;
53391;SDS011;41667;51.922;8.850;2022-09-16T10:55:20;5.20;;;1.53;;
53391;SDS011;41667;51.922;8.850;2022-09-16T10:57:45;5.00;;;0.90;;
53391;SDS011;41667;51.922;8.850;2022-09-16T11:00:15;4.15;;;0.73;;
53391;SDS011;41667;51.922;8.850;2022-09-16T11:02:54;3.05;;;0.80;;
53391;SDS011;41667;51.922;8.850;2022-09-16T11:07:57;5.47;;;0.75;;
53391;SDS011;41667;51.922;8.850;2022-09-16T11:10:31;4.78;;;0.70;;
53391;SDS011;41667;51.922;8.850;2022-09-16T11:31:13;2.60;;;0.65;;
53391;SDS011;41667;51.922;8.850;2022-09-16T11:36:22;4.43;;;0.93;;
53391;SDS011;41667;51.922;8.850;2022-09-16T11:41:44;5.32;;;0.95;;
53391;SDS011;41667;51.922;8.850;2022-09-16T11:44:16;5.25;;;0.90;;
53391;SDS011;41667;51.922;8.850;2022-09-16T11:49:58;3.37;;;0.60;;
53391;SDS011;41667;51.922;8.850;2022-09-16T11:52:42;3.90;;;0.60;;
53391;SDS011;41667;51.922;8.850;2022-09-16T11:58:05;0.55;;;0.40;;
53391;SDS011;41667;51.922;8.850;2022-09-16T12:00:33;1.92;;;0.52;;
53391;SDS011;41667;51.922;8.850;2022-09-16T12:10:42;6.15;;;0.95;;
53391;SDS011;41667;51.922;8.850;2022-09-16T12:13:08;4.90;;;0.98;;
53391;SDS011;41667;51.922;8.850;2022-09-16T12:15:38;5.25;;;0.80;;
53391;SDS011;41667;51.922;8.850;2022-09-16T12:18:09;1.85;;;0.55;;
53391;SDS011;41667;51.922;8.850;2022-09-16T12:20:37;1.25;;;0.60;;
53391;SDS011;41667;51.922;8.850;2022-09-16T12:28:06;2.97;;;0.68;;
53391;SDS011;41667;51.922;8.850;2022-09-16T12:30:44;3.72;;;0.98;;
53391;SDS011;41667;51.922;8.850;2022-09-16T12:36:26;12.60;;;1.95;;
53391;SDS011;41667;51.922;8.850;2022-09-16T12:38:24;3.15;;;0.63;;
53391;SDS011;41667;51.922;8.850;2022-09-16T12:46:21;2.80;;;0.98;;
53391;SDS011;41667;51.922;8.850;2022-09-16T12:48:56;0.90;;;0.50;;
53391;SDS011;41667;51.922;8.850;2022-09-16T12:57:02;1.65;;;0.65;;
53391;SDS011;41667;51.922;8.850;2022-09-16T13:01:57;3.95;;;0.70;;
53391;SDS011;41667;51.922;8.850;2022-09-16T13:04:26;4.07;;;0.75;;
53391;SDS011;41667;51.922;8.850;2022-09-16T13:06:53;2.90;;;1.20;;
53391;SDS011;41667;51.922;8.850;2022-09-16T13:11:59;2.77;;;0.80;;
53391;SDS011;41667;51.922;8.850;2022-09-16T13:14:33;0.50;;;0.50;;
53391;SDS011;41667;51.922;8.850;2022-09-16T13:17:00;1.27;;;0.40;;
53391;SDS011;41667;51.922;8.850;2022-09-16T13:19:31;1.27;;;0.82;;
53391;SDS011;41667;51.922;8.850;2022-09-16T13:22:04;1.27;;;0.43;;
53391;SDS011;41667;51.922;8.850;2022-09-16T13:24:35;0.40;;;0.40;;
53391;SDS011;41667;51.922;8.850;2022-09-16T13:27:12;0.75;;;0.45;;
53391;SDS011;41667;51.922;8.850;2022-09-16T13:29:43;5.60;;;1.42;;
53391;SDS011;41667;51.922;8.850;2022-09-16T13:32:24;4.03;;;0.60;;
53391;SDS011;41667;51.922;8.850;2022-09-16T13:34:59;2.77;;;0.50;;
53391;SDS011;41667;51.922;8.850;2022-09-16T13:37:27;2.50;;;0.80;;
53391;SDS011;41667;51.922;8.850;2022-09-16T13:39:52;0.90;;;0.50;;
53391;SDS011;41667;51.922;8.850;2022-09-16T13:42:18;2.00;;;1.23;;
53391;SDS011;41667;51.922;8.850;2022-09-16T13:44:44;4.60;;;0.50;;
53391;SDS011;41667;51.922;8.850;2022-09-16T13:52:18;2.55;;;1.15;;
53391;SDS011;41667;51.922;8.850;2022-09-16T13:54:51;3.13;;;1.00;;
53391;SDS011;41667;51.922;8.850;2022-09-16T13:57:29;2.63;;;0.68;;
53391;SDS011;41667;51.922;8.850;2022-09-16T14:00:10;1.85;;;0.65;;
53391;SDS011;41667;51.922;8.850;2022-09-16T14:02:48;1.95;;;0.75;;
53391;SDS011;41667;51.922;8.850;2022-09-16T14:05:22;4.65;;;1.00;;
53391;SDS011;41667;51.922;8.850;2022-09-16T14:07:57;1.00;;;0.70;;
53391;SDS011;41667;51.922;8.850;2022-09-16T14:13:03;2.83;;;0.97;;
53391;SDS011;41667;51.922;8.850;2022-09-16T14:15:35;0.63;;;0.45;;
53391;SDS011;41667;51.922;8.850;2022-09-16T14:18:01;2.08;;;0.82;;
53391;SDS011;41667;51.922;8.850;2022-09-16T14:20:26;0.90;;;0.60;;
53391;SDS011;41667;51.922;8.850;2022-09-16T14:22:59;4.63;;;0.80;;
53391;SDS011;41667;51.922;8.850;2022-09-16T14:25:25;2.72;;;0.80;;
53391;SDS011;41667;51.922;8.850;2022-09-16T14:27:51;2.60;;;0.68;;
53391;SDS011;41667;51.922;8.850;2022-09-16T14:30:16;3.60;;;0.60;;
53391;SDS011;41667;51.922;8.850;2022-09-16T14:32:42;4.63;;;0.80;;
53391;SDS011;41667;51.922;8.850;2022-09-16T14:35:14;2.60;;;0.68;;
53391;SDS011;41667;51.922;8.850;2022-09-16T14:37:42;2.45;;;0.75;;
53391;SDS011;41667;51.922;8.850;2022-09-16T14:40:10;2.80;;;1.00;;
53391;SDS011;41667;51.922;8.850;2022-09-16T14:42:46;2.65;;;0.50;;
53391;SDS011;41667;51.922;8.850;2022-09-16T14:45:13;1.55;;;0.65;;
53391;SDS011;41667;51.922;8.850;2022-09-16T14:47:40;3.55;;;0.50;;
53391;SDS011;41667;51.922;8.850;2022-09-16T14:50:07;3.80;;;1.10;;
53391;SDS011;41667;51.922;8.850;2022-09-16T14:52:36;2.92;;;0.57;;
53391;SDS011;41667;51.922;8.850;2022-09-16T14:55:01;6.28;;;0.75;;
53391;SDS011;41667;51.922;8.850;2022-09-16T14:57:27;3.13;;;0.80;;
53391;SDS011;41667;51.922;8.850;2022-09-16T14:59:54;3.20;;;0.60;;
53391;SDS011;41667;51.922;8.850;2022-09-16T15:02:26;3.53;;;0.77;;
53391;SDS011;41667;51.922;8.850;2022-09-16T15:04:55;3.75;;;1.02;;
53391;SDS011;41667;51.922;8.850;2022-09-16T15:07:28;5.95;;;0.98;;
53391;SDS011;41667;51.922;8.850;2022-09-16T15:12:27;6.17;;;0.77;;
53391;SDS011;41667;51.922;8.850;2022-09-16T15:14:53;2.22;;;0.52;;
53391;SDS011;41667;51.922;8.850;2022-09-16T15:17:19;3.40;;;1.00;;
53391;SDS011;41667;51.922;8.850;2022-09-16T15:19:57;4.32;;;1.08;;
53391;SDS011;41667;51.922;8.850;2022-09-16T15:22:23;3.75;;;0.57;;
53391;SDS011;41667;51.922;8.850;2022-09-16T15:24:50;3.53;;;0.60;;
53391;SDS011;41667;51.922;8.850;2022-09-16T15:27:20;3.70;;;1.10;;
53391;SDS011;41667;51.922;8.850;2022-09-16T15:29:46;10.80;;;1.15;;
53391;SDS011;41667;51.922;8.850;2022-09-16T15:34:42;0.70;;;0.70;;
53391;SDS011;41667;51.922;8.850;2022-09-16T15:37:26;0.98;;;0.57;;
53391;SDS011;41667;51.922;8.850;2022-09-16T15:39:52;0.60;;;0.57;;
53391;SDS011;41667;51.922;8.850;2022-09-16T15:44:46;2.83;;;0.65;;
53391;SDS011;41667;51.922;8.850;2022-09-16T15:47:16;3.13;;;0.50;;
53391;SDS011;41667;51.922;8.850;2022-09-16T15:49:42;2.50;;;0.60;;
53391;SDS011;41667;51.922;8.850;2022-09-16T15:52:08;2.10;;;0.90;;
53391;SDS011;41667;51.922;8.850;2022-09-16T15:54:40;1.45;;;0.90;;
53391;SDS011;41667;51.922;8.850;2022-09-16T15:57:16;4.45;;;0.75;;
53391;SDS011;41667;51.922;8.850;2022-09-16T15:59:54;4.05;;;0.63;;
53391;SDS011;41667;51.922;8.850;2022-09-16T16:04:49;1.77;;;0.50;;
53391;SDS011;41667;51.922;8.850;2022-09-16T16:07:36;3.30;;;0.90;;
53391;SDS011;41667;51.922;8.850;2022-09-16T16:10:10;2.08;;;0.60;;
53391;SDS011;41667;51.922;8.850;2022-09-16T16:12:36;1.63;;;0.70;;
53391;SDS011;41667;51.922;8.850;2022-09-16T16:15:01;2.53;;;0.73;;
53391;SDS011;41667;51.922;8.850;2022-09-16T16:17:26;1.93;;;1.10;;
53391;SDS011;41667;51.922;8.850;2022-09-16T16:19:52;2.15;;;0.60;;
53391;SDS011;41667;51.922;8.850;2022-09-16T16:22:19;2.58;;;0.40;;
53391;SDS011;41667;51.922;8.850;2022-09-16T16:24:45;4.88;;;0.60;;
53391;SDS011;41667;51.922;8.850;2022-09-16T16:27:10;2.85;;;0.98;;
53391;SDS011;41667;51.922;8.850;2022-09-16T16:29:35;6.37;;;0.80;;
53391;SDS011;41667;51.922;8.850;2022-09-16T16:32:09;2.17;;;0.85;;
53391;SDS011;41667;51.922;8.850;2022-09-16T16:34:40;1.95;;;0.70;;
53391;SDS011;41667;51.922;8.850;2022-09-16T16:37:05;2.95;;;0.60;;
53391;SDS011;41667;51.922;8.850;2022-09-16T16:39:31;2.60;;;0.82;;
53391;SDS011;41667;51.922;8.850;2022-09-16T16:41:56;4.90;;;0.77;;
53391;SDS011;41667;51.922;8.850;2022-09-16T16:44:22;4.05;;;0.93;;
53391;SDS011;41667;51.922;8.850;2022-09-16T16:46:51;4.38;;;0.90;;
53391;SDS011;41667;51.922;8.850;2022-09-16T16:49:16;3.30;;;0.90;;
53391;SDS011;41667;51.922;8.850;2022-09-16T16:51:41;2.03;;;0.95;;
53391;SDS011;41667;51.922;8.850;2022-09-16T16:54:06;2.80;;;0.97;;
53391;SDS011;41667;51.922;8.850;2022-09-16T16:56:31;1.40;;;0.88;;
53391;SDS011;41667;51.922;8.850;2022-09-16T16:58:57;4.32;;;1.23;;
53391;SDS011;41667;51.922;8.850;2022-09-16T17:01:22;1.90;;;1.20;;
53391;SDS011;41667;51.922;8.850;2022-09-16T17:03:47;3.10;;;1.23;;
53391;SDS011;41667;51.922;8.850;2022-09-16T17:06:15;4.20;;;1.50;;
53391;SDS011;41667;51.922;8.850;2022-09-16T17:08:41;1.60;;;0.80;;
53391;SDS011;41667;51.922;8.850;2022-09-16T17:11:07;0.80;;;0.73;;
53391;SDS011;41667;51.922;8.850;2022-09-16T17:13:33;3.78;;;0.80;;
53391;SDS011;41667;51.922;8.850;2022-09-16T17:15:59;2.17;;;1.60;;
53391;SDS011;41667;51.922;8.850;2022-09-16T17:18:24;2.65;;;1.50;;
53391;SDS011;41667;51.922;8.850;2022-09-16T17:20:49;2.97;;;1.05;;
53391;SDS011;41667;51.922;8.850;2022-09-16T17:23:14;3.10;;;1.45;;
53391;SDS011;41667;51.922;8.850;2022-09-16T17:25:39;7.47;;;1.67;;
53391;SDS011;41667;51.922;8.850;2022-09-16T17:28:04;4.43;;;1.30;;
53391;SDS011;41667;51.922;8.850;2022-09-16T17:30:29;5.43;;;1.17;;